createdAt,value
2018-01-12T00:01:02.305Z,0
2018-01-12T00:02:00.627Z,0
2018-01-12T00:03:00.882Z,0
2018-01-12T00:04:00.056Z,0
2018-01-12T00:05:00.586Z,0
2018-01-12T00:06:01.132Z,0
2018-01-12T00:07:00.646Z,0
2018-01-12T00:08:00.963Z,0
2018-01-12T00:09:01.882Z,0
2018-01-12T00:10:00.438Z,0
2018-01-12T00:11:01.621Z,0
2018-01-12T00:12:01.090Z,0
2018-01-12T00:13:00.779Z,0
2018-01-12T00:14:01.103Z,0
2018-01-12T00:15:01.100Z,0
2018-01-12T00:16:01.165Z,0
2018-01-12T00:17:01.001Z,0
2018-01-12T00:18:01.161Z,0
2018-01-12T00:19:03.176Z,0
2018-01-12T00:20:01.390Z,0
2018-01-12T00:21:02.557Z,0
2018-01-12T00:22:01.980Z,0
2018-01-12T00:23:01.767Z,0
2018-01-12T00:24:02.120Z,0
2018-01-12T00:25:01.135Z,0
2018-01-12T00:26:01.824Z,0
2018-01-12T00:27:02.820Z,0
2018-01-12T00:28:03.022Z,0
2018-01-12T00:29:02.956Z,0
2018-01-12T00:30:03.059Z,0
2018-01-12T00:31:03.363Z,0
2018-01-12T00:32:02.579Z,0
2018-01-12T00:33:02.939Z,0
2018-01-12T00:34:02.378Z,0
2018-01-12T00:35:03.127Z,0
2018-01-12T00:36:03.456Z,0
2018-01-12T00:37:02.653Z,0
2018-01-12T00:38:04.495Z,0
2018-01-12T00:39:03.290Z,0
2018-01-12T00:40:03.938Z,0
2018-01-12T00:41:04.029Z,0
2018-01-12T00:42:04.394Z,0
2018-01-12T00:43:05.921Z,0
2018-01-12T00:44:05.585Z,0
2018-01-12T00:45:05.927Z,0
2018-01-12T00:46:04.200Z,0
2018-01-12T00:47:06.232Z,0
2018-01-12T00:48:06.171Z,0
2018-01-12T00:49:04.399Z,0
2018-01-12T00:50:03.833Z,0
2018-01-12T00:51:04.962Z,0
2018-01-12T00:52:04.871Z,0
2018-01-12T00:53:04.950Z,0
2018-01-12T00:54:04.665Z,0
2018-01-12T00:55:05.104Z,0
2018-01-12T00:56:05.183Z,0
2018-01-12T00:57:05.522Z,0
2018-01-12T00:58:05.319Z,0
2018-01-12T00:59:06.017Z,0
2018-01-12T01:00:20.858Z,0
2018-01-12T01:01:06.175Z,0
2018-01-12T01:02:06.963Z,0
2018-01-12T01:03:05.654Z,0
2018-01-12T01:04:05.036Z,0
2018-01-12T01:05:05.141Z,0
2018-01-12T01:06:04.555Z,0
2018-01-12T01:07:06.744Z,0
2018-01-12T01:08:04.859Z,0
2018-01-12T01:09:05.460Z,0
2018-01-12T01:10:04.946Z,0
2018-01-12T01:11:05.034Z,0
2018-01-12T01:12:05.457Z,0
2018-01-12T01:13:04.723Z,0
2018-01-12T01:14:04.968Z,0
2018-01-12T01:15:05.728Z,0
2018-01-12T01:16:05.615Z,0
2018-01-12T01:17:05.329Z,0
2018-01-12T01:18:05.042Z,0
2018-01-12T01:19:05.496Z,0
2018-01-12T01:20:06.023Z,0
2018-01-12T01:21:06.498Z,0
2018-01-12T01:22:07.309Z,0
2018-01-12T01:23:06.933Z,0
2018-01-12T01:24:06.889Z,0
2018-01-12T01:25:06.920Z,0
2018-01-12T01:26:06.388Z,0
2018-01-12T01:27:06.558Z,0
2018-01-12T01:28:07.180Z,0
2018-01-12T01:29:07.315Z,0
2018-01-12T01:30:08.469Z,0
2018-01-12T01:31:07.317Z,0
2018-01-12T01:32:07.645Z,0
2018-01-12T01:33:06.989Z,0
2018-01-12T01:34:06.340Z,0
2018-01-12T01:35:07.732Z,0
2018-01-12T01:36:07.153Z,0
2018-01-12T01:37:07.145Z,0
2018-01-12T01:38:07.584Z,0
2018-01-12T01:39:07.834Z,0
2018-01-12T01:40:08.367Z,0
2018-01-12T01:41:07.857Z,0
2018-01-12T01:42:08.551Z,0
2018-01-12T01:43:08.987Z,0
2018-01-12T01:44:09.046Z,0
2018-01-12T01:45:08.921Z,0
2018-01-12T01:46:08.631Z,0
2018-01-12T01:47:08.929Z,0
2018-01-12T01:48:08.877Z,0
2018-01-12T01:49:09.135Z,0
2018-01-12T01:50:08.992Z,0
2018-01-12T01:51:09.852Z,0
2018-01-12T01:52:09.702Z,0
2018-01-12T01:53:09.927Z,0
2018-01-12T01:54:09.630Z,0
2018-01-12T01:55:10.580Z,0
2018-01-12T01:56:10.567Z,0
2018-01-12T01:57:11.377Z,0
2018-01-12T01:58:11.368Z,0
2018-01-12T01:59:11.272Z,0
2018-01-12T02:00:26.701Z,0
2018-01-12T02:01:26.623Z,0
2018-01-12T02:02:26.639Z,0
2018-01-12T02:03:26.782Z,0
2018-01-12T02:04:26.462Z,0
2018-01-12T02:05:26.629Z,0
2018-01-12T02:06:26.754Z,0
2018-01-12T02:07:27.428Z,0
2018-01-12T02:08:28.662Z,0
2018-01-12T02:09:28.629Z,0
2018-01-12T02:10:28.958Z,0
2018-01-12T02:11:28.898Z,0
2018-01-12T02:12:27.411Z,0
2018-01-12T02:13:29.876Z,0
2018-01-12T02:14:29.831Z,0
2018-01-12T02:15:28.677Z,0
2018-01-12T02:16:29.376Z,0
2018-01-12T02:17:30.104Z,0
2018-01-12T02:18:29.484Z,0
2018-01-12T02:19:29.366Z,0
2018-01-12T02:20:30.021Z,0
2018-01-12T02:21:29.912Z,0
2018-01-12T02:22:30.451Z,0
2018-01-12T02:23:29.782Z,0
2018-01-12T02:24:28.124Z,0
2018-01-12T02:25:28.865Z,0
2018-01-12T02:26:28.123Z,0
2018-01-12T02:27:29.008Z,0
2018-01-12T02:28:28.679Z,0
2018-01-12T02:29:28.972Z,0
2018-01-12T02:30:58.446Z,0
2018-01-12T02:31:43.621Z,0
2018-01-12T02:32:44.280Z,0
2018-01-12T02:33:44.195Z,0
2018-01-12T02:34:44.492Z,0
2018-01-12T02:35:44.860Z,0
2018-01-12T02:36:45.258Z,0
2018-01-12T02:37:44.994Z,0
2018-01-12T02:38:44.868Z,0
2018-01-12T02:39:45.156Z,0
2018-01-12T02:40:45.587Z,0
2018-01-12T02:41:45.753Z,0
2018-01-12T02:42:45.944Z,0
2018-01-12T02:43:45.829Z,0
2018-01-12T02:44:46.365Z,0
2018-01-12T02:45:46.310Z,0
2018-01-12T02:46:46.986Z,0
2018-01-12T02:47:46.954Z,0
2018-01-12T02:48:47.124Z,0
2018-01-12T02:49:46.769Z,0
2018-01-12T02:50:47.185Z,0
2018-01-12T02:51:46.982Z,0
2018-01-12T02:52:47.153Z,0
2018-01-12T02:53:47.182Z,0
2018-01-12T02:54:47.817Z,0
2018-01-12T02:55:47.992Z,0
2018-01-12T02:56:47.924Z,0
2018-01-12T02:57:48.283Z,0
2018-01-12T02:58:47.777Z,0
2018-01-12T02:59:48.164Z,0
2018-01-12T03:00:48.394Z,0
2018-01-12T03:01:48.162Z,0
2018-01-12T03:02:48.487Z,0
2018-01-12T03:03:48.746Z,0
2018-01-12T03:04:48.721Z,0
2018-01-12T03:05:48.541Z,0
2018-01-12T03:06:48.514Z,0
2018-01-12T03:07:48.772Z,0
2018-01-12T03:08:48.996Z,0
2018-01-12T03:09:48.581Z,0
2018-01-12T03:10:49.158Z,0
2018-01-12T03:11:49.285Z,0
2018-01-12T03:12:48.958Z,0
2018-01-12T03:13:48.948Z,0
2018-01-12T03:14:49.274Z,0
2018-01-12T03:15:48.796Z,0
2018-01-12T03:16:49.332Z,0
2018-01-12T03:17:49.037Z,0
2018-01-12T03:18:49.338Z,0
2018-01-12T03:19:49.401Z,0
2018-01-12T03:20:49.129Z,0
2018-01-12T03:21:49.418Z,0
2018-01-12T03:22:48.885Z,0
2018-01-12T03:23:49.431Z,0
2018-01-12T03:24:49.947Z,0
2018-01-12T03:25:50.016Z,0
2018-01-12T03:26:49.958Z,0
2018-01-12T03:27:50.073Z,0
2018-01-12T03:28:49.859Z,0
2018-01-12T03:29:49.827Z,0
2018-01-12T03:30:50.150Z,0
2018-01-12T03:31:50.085Z,0
2018-01-12T03:32:50.043Z,0
2018-01-12T03:33:50.123Z,0
2018-01-12T03:34:50.484Z,0
2018-01-12T03:35:50.760Z,0
2018-01-12T03:36:50.465Z,0
2018-01-12T03:37:50.191Z,0
2018-01-12T03:38:50.514Z,0
2018-01-12T03:39:50.834Z,0
2018-01-12T03:40:50.296Z,0
2018-01-12T03:41:51.699Z,0
2018-01-12T03:42:51.475Z,0
2018-01-12T03:43:51.356Z,0
2018-01-12T03:44:51.380Z,0
2018-01-12T03:45:51.282Z,0
2018-01-12T03:46:51.006Z,0
2018-01-12T03:47:52.607Z,0
2018-01-12T03:48:51.898Z,0
2018-01-12T03:49:53.139Z,0
2018-01-12T03:50:53.559Z,0
2018-01-12T03:51:52.002Z,0
2018-01-12T03:52:52.592Z,0
2018-01-12T03:53:52.256Z,0
2018-01-12T03:54:52.292Z,0
2018-01-12T03:55:52.162Z,0
2018-01-12T03:56:52.463Z,0
2018-01-12T03:57:52.826Z,0
2018-01-12T03:58:52.856Z,0
2018-01-12T03:59:52.653Z,0
2018-01-12T04:01:07.143Z,0
2018-01-12T04:01:52.906Z,0
2018-01-12T04:02:52.935Z,0
2018-01-12T04:03:54.043Z,0
2018-01-12T04:04:53.711Z,0
2018-01-12T04:05:53.358Z,0
2018-01-12T04:06:53.944Z,0
2018-01-12T04:07:53.620Z,0
2018-01-12T04:08:53.938Z,0
2018-01-12T04:09:53.678Z,0
2018-01-12T04:10:54.536Z,0
2018-01-12T04:11:55.882Z,0
2018-01-12T04:12:54.526Z,0
2018-01-12T04:13:54.003Z,0
2018-01-12T04:14:54.059Z,0
2018-01-12T04:15:54.980Z,0
2018-01-12T04:16:54.919Z,0
2018-01-12T04:17:54.828Z,0
2018-01-12T04:18:56.497Z,0
2018-01-12T04:19:54.587Z,0
2018-01-12T04:20:54.644Z,0
2018-01-12T04:21:54.845Z,0
2018-01-12T04:22:54.706Z,0
2018-01-12T04:23:54.651Z,0
2018-01-12T04:24:54.783Z,0
2018-01-12T04:25:54.956Z,0
2018-01-12T04:26:55.102Z,0
2018-01-12T04:27:55.268Z,0
2018-01-12T04:28:54.900Z,0
2018-01-12T04:29:54.792Z,0
2018-01-12T04:30:54.550Z,0
2018-01-12T04:31:55.406Z,0
2018-01-12T04:32:55.115Z,0
2018-01-12T04:33:55.373Z,0
2018-01-12T04:34:55.451Z,0
2018-01-12T04:35:55.404Z,0
2018-01-12T04:36:55.734Z,0
2018-01-12T04:37:55.717Z,0
2018-01-12T04:38:55.490Z,0
2018-01-12T04:39:55.859Z,0
2018-01-12T04:40:55.887Z,0
2018-01-12T04:41:55.726Z,0
2018-01-12T04:42:55.575Z,0
2018-01-12T04:43:55.928Z,0
2018-01-12T04:44:56.413Z,0
2018-01-12T04:45:55.766Z,0
2018-01-12T04:46:56.058Z,0
2018-01-12T04:47:55.791Z,0
2018-01-12T04:48:57.344Z,0
2018-01-12T04:49:56.907Z,0
2018-01-12T04:50:56.676Z,0
2018-01-12T04:51:56.155Z,0
2018-01-12T04:52:56.981Z,0
2018-01-12T04:53:56.452Z,0
2018-01-12T04:54:57.860Z,0
2018-01-12T04:55:56.561Z,0
2018-01-12T04:56:57.674Z,0
2018-01-12T04:57:58.038Z,0
2018-01-12T04:58:57.714Z,0
2018-01-12T04:59:57.179Z,0
2018-01-12T05:00:55.921Z,0
2018-01-12T05:01:56.542Z,0
2018-01-12T05:02:56.387Z,0
2018-01-12T05:03:55.888Z,0
2018-01-12T05:04:56.666Z,0
2018-01-12T05:05:56.245Z,0
2018-01-12T05:06:56.691Z,0
2018-01-12T05:07:56.906Z,0
2018-01-12T05:08:56.936Z,0
2018-01-12T05:09:57.111Z,0
2018-01-12T05:10:58.121Z,0
2018-01-12T05:11:56.578Z,0
2018-01-12T05:12:56.679Z,0
2018-01-12T05:13:57.152Z,0
2018-01-12T05:14:57.203Z,0
2018-01-12T05:15:56.160Z,0
2018-01-12T05:16:56.491Z,0
2018-01-12T05:17:56.757Z,0
2018-01-12T05:18:56.667Z,0
2018-01-12T05:19:56.934Z,0
2018-01-12T05:20:58.165Z,0
2018-01-12T05:22:10.960Z,0
2018-01-12T05:22:57.708Z,0
2018-01-12T05:23:58.073Z,0
2018-01-12T05:24:57.706Z,0
2018-01-12T05:25:57.989Z,0
2018-01-12T05:26:57.069Z,0
2018-01-12T05:27:56.837Z,0
2018-01-12T05:28:56.912Z,0
2018-01-12T05:29:56.930Z,0
2018-01-12T05:30:57.241Z,0
2018-01-12T05:31:57.760Z,0
2018-01-12T05:32:57.909Z,0
2018-01-12T05:33:58.192Z,0
2018-01-12T05:34:58.231Z,0
2018-01-12T05:35:58.269Z,0
2018-01-12T05:36:58.308Z,0
2018-01-12T05:37:57.653Z,0
2018-01-12T05:38:58.240Z,0
2018-01-12T05:39:58.025Z,0
2018-01-12T05:40:58.192Z,0
2018-01-12T05:41:59.197Z,0
2018-01-12T05:43:00.029Z,0
2018-01-12T05:43:59.264Z,0
2018-01-12T05:44:59.287Z,0
2018-01-12T05:45:59.500Z,0
2018-01-12T05:46:58.630Z,0
2018-01-12T05:47:59.574Z,0
2018-01-12T05:48:58.988Z,0
2018-01-12T05:49:59.351Z,0
2018-01-12T05:50:59.153Z,0
2018-01-12T05:51:59.710Z,0
2018-01-12T05:52:59.716Z,0
2018-01-12T05:53:59.864Z,0
2018-01-12T05:55:00.711Z,0
2018-01-12T05:55:59.779Z,0
2018-01-12T05:57:00.098Z,0
2018-01-12T05:58:00.078Z,0
2018-01-12T05:59:00.321Z,0
2018-01-12T06:00:00.471Z,0
2018-01-12T06:01:15.469Z,0
2018-01-12T06:02:00.908Z,0
2018-01-12T06:03:00.622Z,0
2018-01-12T06:04:00.963Z,0
2018-01-12T06:05:00.717Z,0
2018-01-12T06:06:00.975Z,0
2018-01-12T06:07:00.803Z,0
2018-01-12T06:08:00.753Z,0
2018-01-12T06:09:00.844Z,0
2018-01-12T06:10:01.105Z,0
2018-01-12T06:11:00.901Z,0
2018-01-12T06:12:00.435Z,0
2018-01-12T06:13:00.575Z,0
2018-01-12T06:14:01.648Z,0
2018-01-12T06:15:02.090Z,0
2018-01-12T06:16:01.407Z,0
2018-01-12T06:17:01.764Z,0
2018-01-12T06:18:01.470Z,0
2018-01-12T06:19:01.593Z,0
2018-01-12T06:20:01.723Z,0
2018-01-12T06:21:01.452Z,0
2018-01-12T06:22:01.402Z,0
2018-01-12T06:23:01.993Z,0
2018-01-12T06:24:02.167Z,0
2018-01-12T06:25:01.869Z,0
2018-01-12T06:26:02.237Z,0
2018-01-12T06:27:02.374Z,0
2018-01-12T06:28:03.651Z,0
2018-01-12T06:29:03.340Z,0
2018-01-12T06:30:03.035Z,0
2018-01-12T06:31:03.343Z,0
2018-01-12T06:32:02.833Z,0
2018-01-12T06:33:05.766Z,0
2018-01-12T06:34:05.066Z,0
2018-01-12T06:35:04.102Z,0
2018-01-12T06:36:04.244Z,0
2018-01-12T06:37:04.486Z,0
2018-01-12T06:38:04.573Z,0
2018-01-12T06:39:05.551Z,0
2018-01-12T06:40:05.432Z,0
2018-01-12T06:41:05.597Z,0
2018-01-12T06:42:06.381Z,0
2018-01-12T06:43:06.267Z,0
2018-01-12T06:44:05.342Z,0
2018-01-12T06:45:05.936Z,0
2018-01-12T06:46:05.764Z,0
2018-01-12T06:47:05.509Z,0
2018-01-12T06:48:06.351Z,0
2018-01-12T06:49:06.172Z,0
2018-01-12T06:50:06.174Z,0
2018-01-12T06:51:05.915Z,4
2018-01-12T06:52:05.718Z,0
2018-01-12T06:53:06.377Z,0
2018-01-12T06:54:06.546Z,0
2018-01-12T06:55:05.903Z,0
2018-01-12T06:56:06.592Z,4
2018-01-12T06:57:06.764Z,4
2018-01-12T06:58:06.840Z,4
2018-01-12T06:59:06.853Z,4
2018-01-12T07:00:22.304Z,4
2018-01-12T07:01:07.578Z,4
2018-01-12T07:02:08.042Z,4
2018-01-12T07:03:07.991Z,4
2018-01-12T07:04:09.400Z,4
2018-01-12T07:05:08.778Z,8
2018-01-12T07:06:10.222Z,8
2018-01-12T07:07:08.003Z,4
2018-01-12T07:08:08.480Z,8
2018-01-12T07:09:08.850Z,12
2018-01-12T07:10:08.311Z,12
2018-01-12T07:11:08.599Z,12
2018-01-12T07:12:08.296Z,12
2018-01-12T07:13:08.649Z,12
2018-01-12T07:14:09.265Z,16
2018-01-12T07:15:08.846Z,20
2018-01-12T07:16:09.429Z,24
2018-01-12T07:17:09.230Z,24
2018-01-12T07:18:09.542Z,24
2018-01-12T07:19:09.787Z,24
2018-01-12T07:20:09.725Z,24
2018-01-12T07:21:10.766Z,24
2018-01-12T07:22:10.669Z,32
2018-01-12T07:23:10.674Z,36
2018-01-12T07:24:09.910Z,32
2018-01-12T07:25:09.880Z,36
2018-01-12T07:26:09.776Z,32
2018-01-12T07:27:10.452Z,36
2018-01-12T07:28:10.181Z,44
2018-01-12T07:29:10.413Z,48
2018-01-12T07:30:09.876Z,48
2018-01-12T07:31:09.850Z,44
2018-01-12T07:32:10.924Z,48
2018-01-12T07:33:10.270Z,48
2018-01-12T07:34:10.925Z,48
2018-01-12T07:35:11.294Z,52
2018-01-12T07:36:10.901Z,56
2018-01-12T07:37:11.556Z,60
2018-01-12T07:38:13.009Z,68
2018-01-12T07:39:11.368Z,68
2018-01-12T07:40:12.357Z,68
2018-01-12T07:41:11.886Z,72
2018-01-12T07:42:12.324Z,76
2018-01-12T07:43:12.623Z,76
2018-01-12T07:44:12.162Z,76
2018-01-12T07:45:12.170Z,76
2018-01-12T07:46:13.614Z,84
2018-01-12T07:47:12.136Z,80
2018-01-12T07:48:11.906Z,84
2018-01-12T07:49:12.213Z,84
2018-01-12T07:50:12.204Z,84
2018-01-12T07:51:12.087Z,84
2018-01-12T07:52:13.186Z,88
2018-01-12T07:53:13.066Z,96
2018-01-12T07:54:12.805Z,96
2018-01-12T07:55:13.207Z,108
2018-01-12T07:56:13.540Z,100
2018-01-12T07:57:13.357Z,96
2018-01-12T07:58:13.306Z,100
2018-01-12T07:59:13.960Z,108
2018-01-12T08:00:27.990Z,124
2018-01-12T08:01:14.945Z,128
2018-01-12T08:02:15.076Z,136
2018-01-12T08:03:13.415Z,148
2018-01-12T08:04:14.026Z,164
2018-01-12T08:05:13.525Z,160
2018-01-12T08:06:15.003Z,160
2018-01-12T08:07:14.618Z,172
2018-01-12T08:08:13.800Z,180
2018-01-12T08:09:14.121Z,180
2018-01-12T08:10:14.113Z,180
2018-01-12T08:11:14.475Z,196
2018-01-12T08:12:14.783Z,212
2018-01-12T08:13:14.410Z,228
2018-01-12T08:14:14.926Z,244
2018-01-12T08:15:14.789Z,284
2018-01-12T08:16:14.892Z,300
2018-01-12T08:17:16.307Z,332
2018-01-12T08:18:15.596Z,344
2018-01-12T08:19:16.395Z,348
2018-01-12T08:20:15.564Z,352
2018-01-12T08:21:15.904Z,360
2018-01-12T08:22:15.810Z,356
2018-01-12T08:23:16.930Z,396
2018-01-12T08:24:16.400Z,368
2018-01-12T08:25:16.560Z,392
2018-01-12T08:26:16.382Z,412
2018-01-12T08:27:17.116Z,488
2018-01-12T08:28:16.676Z,628
2018-01-12T08:29:16.896Z,628
2018-01-12T08:30:17.169Z,556
2018-01-12T08:31:17.148Z,536
2018-01-12T08:32:16.851Z,580
2018-01-12T08:33:17.326Z,552
2018-01-12T08:34:17.423Z,408
2018-01-12T08:35:17.208Z,336
2018-01-12T08:36:17.327Z,324
2018-01-12T08:37:18.196Z,424
2018-01-12T08:38:18.778Z,480
2018-01-12T08:39:17.396Z,664
2018-01-12T08:40:19.975Z,608
2018-01-12T08:41:18.311Z,560
2018-01-12T08:42:18.525Z,532
2018-01-12T08:43:19.231Z,548
2018-01-12T08:44:18.044Z,532
2018-01-12T08:45:18.043Z,492
2018-01-12T08:46:17.858Z,488
2018-01-12T08:47:18.647Z,528
2018-01-12T08:48:18.635Z,524
2018-01-12T08:49:18.612Z,540
2018-01-12T08:50:18.861Z,484
2018-01-12T08:51:19.555Z,556
2018-01-12T08:52:19.204Z,768
2018-01-12T08:53:19.508Z,824
2018-01-12T08:54:19.149Z,788
2018-01-12T08:55:19.778Z,672
2018-01-12T08:56:19.985Z,608
2018-01-12T08:57:19.617Z,548
2018-01-12T08:58:19.827Z,584
2018-01-12T08:59:20.325Z,616
2018-01-12T09:00:40.795Z,496
2018-01-12T09:01:25.186Z,452
2018-01-12T09:02:25.010Z,412
2018-01-12T09:03:26.235Z,432
2018-01-12T09:04:25.974Z,448
2018-01-12T09:05:25.796Z,488
2018-01-12T09:06:25.624Z,468
2018-01-12T09:07:26.510Z,448
2018-01-12T09:08:26.708Z,432
2018-01-12T09:09:26.846Z,404
2018-01-12T09:10:27.106Z,452
2018-01-12T09:11:26.449Z,428
2018-01-12T09:12:25.930Z,416
2018-01-12T09:13:26.305Z,444
2018-01-12T09:14:26.889Z,424
2018-01-12T09:15:26.902Z,444
2018-01-12T09:16:26.915Z,508
2018-01-12T09:17:26.591Z,428
2018-01-12T09:18:28.201Z,428
2018-01-12T09:19:28.471Z,408
2018-01-12T09:20:26.719Z,420
2018-01-12T09:21:26.800Z,448
2018-01-12T09:22:28.593Z,440
2018-01-12T09:23:27.600Z,468
2018-01-12T09:24:27.348Z,460
2018-01-12T09:25:26.623Z,480
2018-01-12T09:26:26.722Z,564
2018-01-12T09:27:26.718Z,544
2018-01-12T09:28:28.689Z,540
2018-01-12T09:29:28.429Z,516
2018-01-12T09:30:29.130Z,516
2018-01-12T09:31:27.534Z,580
2018-01-12T09:32:27.006Z,580
2018-01-12T09:33:27.303Z,624
2018-01-12T09:34:27.165Z,632
2018-01-12T09:35:27.430Z,564
2018-01-12T09:36:26.610Z,600
2018-01-12T09:37:27.879Z,560
2018-01-12T09:38:28.662Z,556
2018-01-12T09:39:27.297Z,608
2018-01-12T09:40:27.591Z,544
2018-01-12T09:41:27.897Z,596
2018-01-12T09:42:28.167Z,556
2018-01-12T09:43:28.046Z,580
2018-01-12T09:44:28.571Z,660
2018-01-12T09:45:29.247Z,708
2018-01-12T09:46:28.423Z,660
2018-01-12T09:47:28.591Z,644
2018-01-12T09:48:28.506Z,644
2018-01-12T09:49:28.614Z,736
2018-01-12T09:50:28.685Z,756
2018-01-12T09:51:28.388Z,708
2018-01-12T09:52:28.580Z,672
2018-01-12T09:53:28.334Z,680
2018-01-12T09:54:33.860Z,664
2018-01-12T09:55:33.933Z,656
2018-01-12T09:56:39.349Z,692
2018-01-12T09:57:39.641Z,756
2018-01-12T09:58:39.043Z,648
2018-01-12T09:59:39.465Z,600
2018-01-12T10:00:39.315Z,604
2018-01-12T10:01:39.781Z,776
2018-01-12T10:02:39.502Z,864
2018-01-12T10:03:40.020Z,928
2018-01-12T10:04:40.088Z,772
2018-01-12T10:05:40.446Z,728
2018-01-12T10:06:40.905Z,732
2018-01-12T10:07:39.904Z,780
2018-01-12T10:08:43.347Z,940
2018-01-12T10:09:42.725Z,932
2018-01-12T10:10:42.813Z,864
2018-01-12T10:11:42.841Z,800
2018-01-12T10:12:41.083Z,784
2018-01-12T10:13:40.900Z,832
2018-01-12T10:14:41.385Z,840
2018-01-12T10:15:42.128Z,892
2018-01-12T10:16:42.329Z,908
2018-01-12T10:17:41.754Z,896
2018-01-12T10:18:42.166Z,824
2018-01-12T10:19:42.224Z,780
2018-01-12T10:20:43.483Z,788
2018-01-12T10:21:42.203Z,876
2018-01-12T10:22:42.020Z,804
2018-01-12T10:23:41.638Z,776
2018-01-12T10:24:42.058Z,792
2018-01-12T10:25:42.097Z,780
2018-01-12T10:26:41.879Z,812
2018-01-12T10:27:41.993Z,844
2018-01-12T10:28:41.881Z,784
2018-01-12T10:29:41.903Z,796
2018-01-12T10:30:42.885Z,764
2018-01-12T10:31:42.113Z,812
2018-01-12T10:32:42.411Z,820
2018-01-12T10:33:41.897Z,904
2018-01-12T10:34:42.393Z,896
2018-01-12T10:35:41.962Z,820
2018-01-12T10:36:42.465Z,720
2018-01-12T10:37:42.381Z,776
2018-01-12T10:38:42.545Z,656
2018-01-12T10:39:43.492Z,592
2018-01-12T10:40:43.407Z,640
2018-01-12T10:41:42.832Z,712
2018-01-12T10:42:43.282Z,808
2018-01-12T10:43:43.279Z,828
2018-01-12T10:44:43.765Z,896
2018-01-12T10:45:45.529Z,808
2018-01-12T10:46:44.887Z,716
2018-01-12T10:47:45.824Z,832
2018-01-12T10:48:45.426Z,960
2018-01-12T10:49:45.855Z,968
2018-01-12T10:50:45.696Z,964
2018-01-12T10:51:46.274Z,928
2018-01-12T10:52:45.858Z,800
2018-01-12T10:53:45.731Z,1036
2018-01-12T10:54:45.477Z,940
2018-01-12T10:55:44.866Z,848
2018-01-12T10:56:45.647Z,796
2018-01-12T10:57:45.985Z,764
2018-01-12T10:58:45.966Z,828
2018-01-12T10:59:45.491Z,956
2018-01-12T11:00:46.038Z,972
2018-01-12T11:01:43.943Z,976
2018-01-12T11:02:46.012Z,872
2018-01-12T11:03:44.555Z,876
2018-01-12T11:04:44.655Z,996
2018-01-12T11:05:44.668Z,1004
2018-01-12T11:06:45.372Z,1080
2018-01-12T11:07:44.126Z,932
2018-01-12T11:08:45.476Z,792
2018-01-12T11:09:44.679Z,804
2018-01-12T11:10:45.645Z,880
2018-01-12T11:11:46.768Z,876
2018-01-12T11:12:46.120Z,756
2018-01-12T11:13:45.790Z,688
2018-01-12T11:14:45.454Z,688
2018-01-12T11:15:45.479Z,736
2018-01-12T11:16:44.815Z,728
2018-01-12T11:17:45.275Z,784
2018-01-12T11:18:45.266Z,776
2018-01-12T11:19:44.443Z,668
2018-01-12T11:20:45.993Z,640
2018-01-12T11:21:44.384Z,588
2018-01-12T11:22:45.114Z,604
2018-01-12T11:23:44.582Z,712
2018-01-12T11:24:45.805Z,756
2018-01-12T11:25:45.548Z,736
2018-01-12T11:26:45.023Z,676
2018-01-12T11:27:44.885Z,640
2018-01-12T11:28:44.292Z,764
2018-01-12T11:29:44.716Z,656
2018-01-12T11:30:44.514Z,776
2018-01-12T11:31:44.457Z,864
2018-01-12T11:32:45.266Z,804
2018-01-12T11:33:44.996Z,740
2018-01-12T11:34:45.741Z,660
2018-01-12T11:35:45.719Z,660
2018-01-12T11:36:45.689Z,644
2018-01-12T11:37:46.205Z,704
2018-01-12T11:38:46.748Z,600
2018-01-12T11:39:46.622Z,568
2018-01-12T11:40:46.449Z,560
2018-01-12T11:41:46.797Z,556
2018-01-12T11:42:46.542Z,552
2018-01-12T11:43:46.525Z,548
2018-01-12T11:44:46.987Z,588
2018-01-12T11:45:46.810Z,564
2018-01-12T11:46:47.552Z,588
2018-01-12T11:47:47.021Z,632
2018-01-12T11:48:46.613Z,672
2018-01-12T11:49:46.926Z,648
2018-01-12T11:50:46.920Z,752
2018-01-12T11:51:47.105Z,728
2018-01-12T11:52:47.198Z,736
2018-01-12T11:53:46.930Z,720
2018-01-12T11:54:47.328Z,708
2018-01-12T11:55:47.580Z,680
2018-01-12T11:56:46.629Z,748
2018-01-12T11:57:47.311Z,792
2018-01-12T11:58:47.179Z,824
2018-01-12T11:59:48.546Z,756
2018-01-12T12:00:47.691Z,708
2018-01-12T12:01:48.864Z,680
2018-01-12T12:02:49.308Z,764
2018-01-12T12:03:49.737Z,768
2018-01-12T12:04:47.956Z,864
2018-01-12T12:05:48.156Z,820
2018-01-12T12:06:48.849Z,876
2018-01-12T12:07:48.732Z,852
2018-01-12T12:08:48.003Z,836
2018-01-12T12:09:48.171Z,852
2018-01-12T12:10:48.853Z,828
2018-01-12T12:11:48.818Z,812
2018-01-12T12:12:48.135Z,744
2018-01-12T12:13:48.486Z,744
2018-01-12T12:14:47.916Z,728
2018-01-12T12:15:47.997Z,840
2018-01-12T12:16:49.134Z,852
2018-01-12T12:17:50.020Z,860
2018-01-12T12:18:49.316Z,808
2018-01-12T12:19:48.104Z,844
2018-01-12T12:20:48.859Z,768
2018-01-12T12:22:03.260Z,824
2018-01-12T12:22:50.032Z,864
2018-01-12T12:23:48.602Z,828
2018-01-12T12:24:50.617Z,800
2018-01-12T12:25:49.608Z,800
2018-01-12T12:26:49.496Z,720
2018-01-12T12:27:49.802Z,812
2018-01-12T12:28:49.587Z,852
2018-01-12T12:29:49.601Z,884
2018-01-12T12:30:50.102Z,824
2018-01-12T12:31:49.956Z,808
2018-01-12T12:32:49.846Z,848
2018-01-12T12:33:49.722Z,840
2018-01-12T12:34:49.455Z,856
2018-01-12T12:35:50.316Z,888
2018-01-12T12:36:49.899Z,796
2018-01-12T12:37:50.643Z,732
2018-01-12T12:38:49.743Z,824
2018-01-12T12:39:50.290Z,820
2018-01-12T12:40:50.862Z,788
2018-01-12T12:41:51.231Z,748
2018-01-12T12:42:51.735Z,724
2018-01-12T12:43:51.828Z,688
2018-01-12T12:44:51.279Z,672
2018-01-12T12:45:50.307Z,776
2018-01-12T12:46:51.039Z,772
2018-01-12T12:47:52.130Z,744
2018-01-12T12:48:51.096Z,748
2018-01-12T12:49:51.619Z,768
2018-01-12T12:50:52.011Z,744
2018-01-12T12:51:52.177Z,728
2018-01-12T12:52:51.555Z,756
2018-01-12T12:53:51.230Z,760
2018-01-12T12:54:52.873Z,712
2018-01-12T12:55:52.546Z,736
2018-01-12T12:56:54.324Z,796
2018-01-12T12:57:52.242Z,800
2018-01-12T12:58:52.932Z,716
2018-01-12T12:59:53.804Z,692
2018-01-12T13:00:52.347Z,676
2018-01-12T13:01:52.359Z,652
2018-01-12T13:02:53.814Z,636
2018-01-12T13:03:52.975Z,628
2018-01-12T13:04:52.887Z,688
2018-01-12T13:05:52.246Z,704
2018-01-12T13:06:52.505Z,712
2018-01-12T13:07:55.159Z,748
2018-01-12T13:08:53.562Z,660
2018-01-12T13:09:54.714Z,652
2018-01-12T13:10:53.637Z,660
2018-01-12T13:11:52.659Z,656
2018-01-12T13:12:53.255Z,664
2018-01-12T13:13:52.882Z,668
2018-01-12T13:14:53.703Z,628
2018-01-12T13:15:53.858Z,616
2018-01-12T13:16:53.947Z,632
2018-01-12T13:17:53.958Z,616
2018-01-12T13:18:53.035Z,616
2018-01-12T13:19:53.509Z,560
2018-01-12T13:20:53.323Z,528
2018-01-12T13:21:52.969Z,508
2018-01-12T13:22:52.920Z,560
2018-01-12T13:23:53.365Z,588
2018-01-12T13:24:53.754Z,544
2018-01-12T13:25:53.724Z,540
2018-01-12T13:26:54.324Z,572
2018-01-12T13:27:53.264Z,532
2018-01-12T13:28:54.299Z,564
2018-01-12T13:29:54.401Z,552
2018-01-12T13:30:54.312Z,544
2018-01-12T13:31:54.155Z,532
2018-01-12T13:32:54.033Z,464
2018-01-12T13:33:54.748Z,456
2018-01-12T13:34:55.056Z,456
2018-01-12T13:35:54.963Z,484
2018-01-12T13:36:55.380Z,496
2018-01-12T13:37:54.876Z,480
2018-01-12T13:38:54.946Z,436
2018-01-12T13:39:55.441Z,428
2018-01-12T13:40:54.612Z,416
2018-01-12T13:41:55.764Z,476
2018-01-12T13:42:54.872Z,564
2018-01-12T13:43:54.869Z,460
2018-01-12T13:44:55.927Z,404
2018-01-12T13:45:55.509Z,536
2018-01-12T13:46:56.163Z,612
2018-01-12T13:47:55.815Z,620
2018-01-12T13:48:55.426Z,496
2018-01-12T13:49:55.639Z,444
2018-01-12T13:50:55.395Z,464
2018-01-12T13:51:57.198Z,416
2018-01-12T13:52:56.467Z,384
2018-01-12T13:53:56.663Z,392
2018-01-12T13:54:56.108Z,328
2018-01-12T13:55:56.085Z,308
2018-01-12T13:56:56.761Z,300
2018-01-12T13:57:56.580Z,324
2018-01-12T13:58:57.984Z,304
2018-01-12T13:59:57.638Z,288
2018-01-12T14:00:58.173Z,280
2018-01-12T14:01:57.611Z,280
2018-01-12T14:02:57.429Z,268
2018-01-12T14:03:57.111Z,280
2018-01-12T14:04:57.531Z,276
2018-01-12T14:05:57.577Z,280
2018-01-12T14:06:57.688Z,280
2018-01-12T14:07:58.601Z,268
2018-01-12T14:08:57.831Z,256
2018-01-12T14:09:57.719Z,284
2018-01-12T14:10:58.082Z,280
2018-01-12T14:11:59.608Z,268
2018-01-12T14:12:58.525Z,252
2018-01-12T14:13:58.913Z,256
2018-01-12T14:14:59.059Z,264
2018-01-12T14:15:59.423Z,272
2018-01-12T14:16:59.351Z,244
2018-01-12T14:17:59.868Z,220
2018-01-12T14:18:59.246Z,236
2018-01-12T14:20:00.304Z,224